Canon City, Colorado
Current Conditions -  °F | °C
As of 3:15 AM on Thursday 29 Jan 2015 (Local Time) from K1V6 Reporting Station
Overcast Overcast  
Wind Chill: 36°   Ceiling: 3500
Heat Index: 39°   Visibility: 10mi
Dew Point: 32°   Wind: 5mph
Humidity: 75%   Direction: 30°NNE
Pressure: 30.39"   Gusts: NA
Location:  38.44°N, 105.23°W
Report Text: K1V6 291015Z AUTO 03004KT 10SM BKN035 OVC090 04/00 A3039 RMK AO2
Loading
Personal Weather Stations






























Interactive Weather Map New forecast layout! Learn more

10-Day Weather Forecast

Advertisements
Track Severe Weather on mobile